Time;durP1;ratioP1;P1;durP2;ratioP2;P2;SDS_P1;SDS_P2;PMS_P1;PMS_P2;Temp;Humidity;BMP_temperature;BMP_pressure;BME280_temperature;BME280_humidity;BME280_pressure;Samples;Min_cycle;Max_cycle;Signal;HPM_P1;HPM_P2
2023/11/20 00:00:06;;;;;;;9.50;2.60;;;;;;;;;;5109388;28;20396;-61
2023/11/20 00:02:33;;;;;;;6.47;2.75;;;;;;;;;;5110321;28;20056;-61
2023/11/20 00:05:01;;;;;;;7.88;2.60;;;;;;;;;;5113604;28;20058;-62
2023/11/20 00:07:29;;;;;;;6.82;2.20;;;;;;;;;;5114233;28;20051;-61
2023/11/20 00:09:56;;;;;;;6.95;2.60;;;;;;;;;;5113196;28;20043;-61
2023/11/20 00:12:23;;;;;;;7.80;2.50;;;;;;;;;;5114342;28;20058;-61
2023/11/20 00:14:50;;;;;;;8.95;2.40;;;;;;;;;;5114132;28;20048;-62
2023/11/20 00:17:16;;;;;;;7.18;2.33;;;;;;;;;;5114791;28;20493;-62
2023/11/20 00:19:45;;;;;;;6.90;2.20;;;;;;;;;;5112536;28;20487;-62
2023/11/20 00:22:12;;;;;;;9.23;2.75;;;;;;;;;;5113217;28;20056;-62
2023/11/20 00:24:40;;;;;;;7.18;2.42;;;;;;;;;;5111137;28;20044;-63
2023/11/20 00:27:07;;;;;;;5.88;2.10;;;;;;;;;;5113150;28;20074;-63
2023/11/20 00:29:34;;;;;;;6.93;2.17;;;;;;;;;;5113442;28;20047;-63
2023/11/20 00:32:01;;;;;;;7.20;2.40;;;;;;;;;;5111778;28;20043;-62
2023/11/20 00:34:28;;;;;;;9.93;2.55;;;;;;;;;;5113473;27;20047;-63
2023/11/20 00:36:54;;;;;;;8.48;2.58;;;;;;;;;;5098036;28;20052;-64
2023/11/20 00:39:21;;;;;;;10.60;2.55;;;;;;;;;;5084347;28;20122;-63
2023/11/20 00:41:49;;;;;;;6.45;2.60;;;;;;;;;;5090692;28;20048;-63
2023/11/20 00:44:16;;;;;;;7.95;2.60;;;;;;;;;;5089210;28;20500;-63
2023/11/20 00:46:43;;;;;;;8.95;3.30;;;;;;;;;;5080310;28;20421;-63
2023/11/20 00:49:09;;;;;;;11.27;2.70;;;;;;;;;;5083088;28;20433;-63
2023/11/20 00:51:36;;;;;;;7.70;2.63;;;;;;;;;;5084907;28;20138;-64
2023/11/20 00:54:03;;;;;;;9.20;3.10;;;;;;;;;;5091694;28;20074;-64
2023/11/20 00:56:30;;;;;;;9.55;3.17;;;;;;;;;;5090458;28;20056;-63
2023/11/20 00:58:58;;;;;;;8.68;2.92;;;;;;;;;;5088671;28;20059;-64
2023/11/20 01:01:25;;;;;;;7.75;3.25;;;;;;;;;;5100615;28;20519;-64
2023/11/20 01:03:51;;;;;;;9.45;2.85;;;;;;;;;;5091749;28;20366;-64
2023/11/20 01:06:18;;;;;;;11.90;3.35;;;;;;;;;;5091186;28;20477;-64
2023/11/20 01:08:45;;;;;;;9.50;3.25;;;;;;;;;;5098032;28;20390;-64
2023/11/20 01:11:12;;;;;;;7.35;3.13;;;;;;;;;;5107564;28;20052;-65
2023/11/20 01:13:39;;;;;;;8.13;2.95;;;;;;;;;;5107649;27;20047;-64
2023/11/20 01:16:07;;;;;;;7.97;2.78;;;;;;;;;;5112444;28;20468;-64
2023/11/20 01:18:35;;;;;;;7.93;2.80;;;;;;;;;;5113601;28;20059;-64
2023/11/20 01:21:02;;;;;;;8.15;2.97;;;;;;;;;;5112273;28;20047;-64
2023/11/20 01:23:29;;;;;;;7.90;3.08;;;;;;;;;;5111421;28;20048;-63
2023/11/20 01:25:56;;;;;;;9.27;2.45;;;;;;;;;;5110075;28;20048;-64
2023/11/20 01:28:23;;;;;;;10.00;2.58;;;;;;;;;;5108164;28;20058;-64
2023/11/20 01:30:50;;;;;;;14.82;2.90;;;;;;;;;;5111437;28;20048;-63
2023/11/20 01:33:19;;;;;;;8.07;2.80;;;;;;;;;;5112394;28;20480;-64
2023/11/20 01:35:46;;;;;;;8.88;2.50;;;;;;;;;;5111603;28;20058;-64
2023/11/20 01:38:13;;;;;;;8.68;2.60;;;;;;;;;;5112195;28;20447;-63
2023/11/20 01:40:40;;;;;;;7.68;3.03;;;;;;;;;;5110904;28;20051;-63
2023/11/20 01:43:06;;;;;;;8.13;2.72;;;;;;;;;;5096614;28;20054;-63
2023/11/20 01:45:33;;;;;;;10.15;3.75;;;;;;;;;;5101003;28;20409;-63
2023/11/20 01:48:01;;;;;;;10.93;3.22;;;;;;;;;;5112327;28;20055;-63
2023/11/20 01:50:31;;;;;;;9.02;2.63;;;;;;;;;;5111933;27;20051;-63
2023/11/20 01:52:58;;;;;;;7.10;2.78;;;;;;;;;;5112365;28;20051;-63
2023/11/20 01:55:25;;;;;;;6.50;2.90;;;;;;;;;;5076932;28;20406;-63
2023/11/20 01:57:52;;;;;;;10.93;2.58;;;;;;;;;;5111890;28;20054;-64
2023/11/20 02:00:19;;;;;;;10.27;2.83;;;;;;;;;;5111070;28;20059;-64
2023/11/20 02:02:46;;;;;;;8.60;2.58;;;;;;;;;;5104661;28;20048;-64
2023/11/20 02:05:13;;;;;;;9.55;3.03;;;;;;;;;;5107072;28;20054;-63
2023/11/20 02:07:41;;;;;;;8.63;2.60;;;;;;;;;;5109342;28;20043;-63
2023/11/20 02:10:09;;;;;;;9.68;2.67;;;;;;;;;;5092342;28;20058;-64
2023/11/20 02:12:36;;;;;;;10.25;2.47;;;;;;;;;;5090086;28;20409;-63
2023/11/20 02:15:03;;;;;;;7.82;2.55;;;;;;;;;;5091705;28;20040;-64
2023/11/20 02:17:30;;;;;;;6.72;2.20;;;;;;;;;;5084352;28;20503;-64
2023/11/20 02:19:57;;;;;;;7.10;1.90;;;;;;;;;;5082892;28;20043;-64
2023/11/20 02:22:23;;;;;;;7.65;2.30;;;;;;;;;;5111576;28;20056;-64
2023/11/20 02:24:52;;;;;;;5.97;1.98;;;;;;;;;;5110755;28;20127;-64
2023/11/20 02:27:30;;;;;;;5.05;1.60;;;;;;;;;;5111957;28;20476;-64
2023/11/20 02:29:59;;;;;;;8.25;1.52;;;;;;;;;;5110791;28;20412;-64
2023/11/20 02:32:28;;;;;;;6.53;1.90;;;;;;;;;;5112136;28;20054;-64
2023/11/20 02:34:55;;;;;;;5.43;1.90;;;;;;;;;;5110797;28;20047;-64
2023/11/20 02:37:22;;;;;;;5.68;1.75;;;;;;;;;;5096190;28;20044;-63
2023/11/20 02:39:49;;;;;;;7.32;2.60;;;;;;;;;;5111287;28;20055;-63
2023/11/20 02:42:16;;;;;;;8.20;2.38;;;;;;;;;;5111567;28;20055;-63
2023/11/20 02:44:45;;;;;;;6.78;2.05;;;;;;;;;;5111037;28;20051;-62
2023/11/20 02:47:13;;;;;;;7.55;2.08;;;;;;;;;;5112194;28;20484;-62
2023/11/20 02:49:40;;;;;;;7.97;2.42;;;;;;;;;;5112576;28;20052;-62
2023/11/20 02:52:07;;;;;;;6.70;2.53;;;;;;;;;;5112173;28;20414;-62
2023/11/20 02:54:35;;;;;;;9.02;2.65;;;;;;;;;;5108445;28;20048;-62
2023/11/20 02:57:02;;;;;;;13.15;3.05;;;;;;;;;;5112269;28;20047;-62
2023/11/20 02:59:29;;;;;;;6.82;2.30;;;;;;;;;;5108170;28;20059;-62
2023/11/20 03:01:56;;;;;;;12.02;2.80;;;;;;;;;;5102968;28;20055;-62
2023/11/20 03:04:24;;;;;;;11.63;2.90;;;;;;;;;;5111290;28;20468;-62
2023/11/20 03:06:51;;;;;;;9.23;3.20;;;;;;;;;;5111135;28;20056;-62
2023/11/20 03:09:18;;;;;;;13.38;2.60;;;;;;;;;;5111651;28;20056;-62
2023/11/20 03:11:45;;;;;;;10.30;2.58;;;;;;;;;;5107474;28;20052;-61
2023/11/20 03:14:12;;;;;;;6.07;2.53;;;;;;;;;;5113539;28;20074;-62
2023/11/20 03:16:39;;;;;;;8.68;2.35;;;;;;;;;;5110605;28;20051;-61
2023/11/20 03:19:06;;;;;;;12.98;3.50;;;;;;;;;;5116155;28;20051;-61
2023/11/20 03:21:36;;;;;;;9.68;2.90;;;;;;;;;;5109830;28;20058;-61
2023/11/20 03:24:03;;;;;;;10.88;3.25;;;;;;;;;;5093465;28;20424;-61
2023/11/20 03:26:30;;;;;;;12.93;3.20;;;;;;;;;;5091803;28;20464;-61
2023/11/20 03:28:57;;;;;;;9.88;3.25;;;;;;;;;;5096341;28;20122;-61
2023/11/20 03:31:24;;;;;;;12.73;3.50;;;;;;;;;;5112949;28;20055;-61
2023/11/20 03:33:51;;;;;;;12.65;3.60;;;;;;;;;;5114909;28;20054;-62
2023/11/20 03:36:20;;;;;;;12.23;3.20;;;;;;;;;;5099054;28;20048;-61
2023/11/20 03:38:48;;;;;;;9.15;3.10;;;;;;;;;;5114049;28;20056;-62
2023/11/20 03:41:15;;;;;;;8.88;2.90;;;;;;;;;;5114453;28;20044;-62
2023/11/20 03:43:42;;;;;;;14.55;3.35;;;;;;;;;;5102622;28;20473;-61
2023/11/20 03:46:08;;;;;;;11.00;3.33;;;;;;;;;;5113357;28;20062;-61
2023/11/20 03:48:35;;;;;;;12.85;3.85;;;;;;;;;;5110860;28;20058;-61
2023/11/20 03:51:04;;;;;;;14.40;3.47;;;;;;;;;;5115146;28;20051;-61
2023/11/20 03:53:31;;;;;;;9.80;3.50;;;;;;;;;;5115597;28;20047;-61
2023/11/20 03:55:59;;;;;;;7.57;2.67;;;;;;;;;;5113849;28;20050;-61
2023/11/20 03:58:26;;;;;;;8.45;2.88;;;;;;;;;;5107470;28;20058;-62
2023/11/20 04:00:53;;;;;;;11.05;3.30;;;;;;;;;;5106584;28;20048;-61
2023/11/20 04:03:20;;;;;;;12.32;3.20;;;;;;;;;;5114106;28;20452;-61
2023/11/20 04:05:48;;;;;;;10.73;2.88;;;;;;;;;;5114160;28;20051;-61
2023/11/20 04:08:14;;;;;;;10.68;3.13;;;;;;;;;;5113750;27;20047;-61
2023/11/20 04:10:41;;;;;;;13.77;3.35;;;;;;;;;;5113861;28;20051;-61
2023/11/20 04:13:10;;;;;;;10.60;3.35;;;;;;;;;;5113630;28;20051;-61
2023/11/20 04:15:37;;;;;;;8.27;3.17;;;;;;;;;;5114255;28;20040;-61
2023/11/20 04:18:04;;;;;;;12.32;3.50;;;;;;;;;;5102899;27;20045;-61
2023/11/20 04:20:31;;;;;;;10.88;3.33;;;;;;;;;;5114392;28;20091;-61
2023/11/20 04:22:57;;;;;;;9.63;3.30;;;;;;;;;;5113359;28;20052;-60
2023/11/20 04:25:24;;;;;;;11.93;3.10;;;;;;;;;;5112792;28;20392;-61
2023/11/20 04:27:52;;;;;;;12.48;3.42;;;;;;;;;;5133196;27;20047;-61
2023/11/20 04:30:22;;;;;;;13.00;3.60;;;;;;;;;;5125849;27;20449;-61
2023/11/20 04:32:48;;;;;;;11.07;2.63;;;;;;;;;;5108216;28;20048;-61
2023/11/20 04:35:15;;;;;;;13.23;3.22;;;;;;;;;;5110757;27;20047;-61
2023/11/20 04:37:42;;;;;;;13.48;3.45;;;;;;;;;;5110725;28;20044;-61
2023/11/20 04:40:09;;;;;;;10.25;2.90;;;;;;;;;;5123597;27;20415;-61
2023/11/20 04:42:36;;;;;;;10.00;2.78;;;;;;;;;;5130207;27;20055;-61
2023/11/20 04:45:03;;;;;;;10.68;3.10;;;;;;;;;;5122120;27;20039;-61
2023/11/20 04:47:32;;;;;;;12.18;2.95;;;;;;;;;;5126063;27;20062;-61
2023/11/20 04:49:59;;;;;;;11.70;3.37;;;;;;;;;;5133358;27;20408;-61
2023/11/20 04:52:26;;;;;;;8.88;3.08;;;;;;;;;;5115597;27;20048;-61
2023/11/20 04:54:54;;;;;;;14.85;3.10;;;;;;;;;;5108323;27;20061;-60
2023/11/20 04:57:21;;;;;;;11.98;2.97;;;;;;;;;;5131780;27;20047;-61
2023/11/20 04:59:48;;;;;;;12.02;3.38;;;;;;;;;;5132340;27;20039;-60
2023/11/20 05:02:15;;;;;;;8.60;2.60;;;;;;;;;;5133165;27;20383;-60
2023/11/20 05:04:44;;;;;;;9.07;3.15;;;;;;;;;;5134234;27;20055;-60
2023/11/20 05:07:11;;;;;;;11.43;2.75;;;;;;;;;;5133680;27;20043;-60
2023/11/20 05:09:38;;;;;;;8.13;2.47;;;;;;;;;;5131099;27;20062;-60
2023/11/20 05:12:06;;;;;;;10.05;2.45;;;;;;;;;;5133269;27;20043;-60
2023/11/20 05:14:33;;;;;;;11.85;2.97;;;;;;;;;;5132365;27;20046;-61
2023/11/20 05:17:00;;;;;;;9.65;3.05;;;;;;;;;;5132851;27;20058;-60
2023/11/20 05:19:27;;;;;;;7.45;2.40;;;;;;;;;;5132772;27;20055;-60
2023/11/20 05:21:55;;;;;;;10.00;2.88;;;;;;;;;;5133573;27;20078;-60
2023/11/20 05:24:21;;;;;;;9.13;2.80;;;;;;;;;;5133163;27;20054;-60
2023/11/20 05:26:48;;;;;;;8.27;2.63;;;;;;;;;;5127632;27;20058;-60
2023/11/20 05:29:15;;;;;;;9.60;2.90;;;;;;;;;;5126748;27;20155;-60
2023/11/20 05:31:43;;;;;;;8.35;2.50;;;;;;;;;;5126602;27;20074;-60
2023/11/20 05:34:09;;;;;;;7.22;2.70;;;;;;;;;;5113151;28;20051;-60
2023/11/20 05:36:36;;;;;;;6.03;2.33;;;;;;;;;;5113334;28;20070;-60
2023/11/20 05:39:06;;;;;;;7.18;2.55;;;;;;;;;;5111539;28;20047;-61
2023/11/20 05:41:32;;;;;;;6.35;2.40;;;;;;;;;;5108924;27;20051;-60
2023/11/20 05:43:59;;;;;;;8.68;2.85;;;;;;;;;;5115276;27;20046;-60
2023/11/20 05:46:31;;;;;;;7.63;2.65;;;;;;;;;;5128895;27;20350;-60
2023/11/20 05:48:58;;;;;;;6.88;2.60;;;;;;;;;;5130177;27;20062;-60
2023/11/20 05:51:25;;;;;;;8.65;2.72;;;;;;;;;;5133250;27;20051;-60
2023/11/20 05:53:52;;;;;;;8.68;2.85;;;;;;;;;;5133611;27;20047;-60
2023/11/20 05:56:21;;;;;;;7.97;2.83;;;;;;;;;;5133398;27;20047;-60
2023/11/20 05:58:47;;;;;;;8.73;2.70;;;;;;;;;;5126989;27;20051;-59
2023/11/20 06:01:15;;;;;;;5.72;2.50;;;;;;;;;;5097946;28;20052;-60
2023/11/20 06:03:41;;;;;;;8.70;2.92;;;;;;;;;;5092546;28;20480;-60
2023/11/20 06:06:08;;;;;;;8.25;2.78;;;;;;;;;;5092366;28;20048;-60
2023/11/20 06:08:36;;;;;;;11.13;3.08;;;;;;;;;;5111643;27;20054;-60
2023/11/20 06:11:03;;;;;;;5.82;2.97;;;;;;;;;;5133349;27;20428;-60
2023/11/20 06:13:31;;;;;;;5.20;2.60;;;;;;;;;;5133048;27;20055;-60
2023/11/20 06:15:57;;;;;;;10.88;3.30;;;;;;;;;;5132596;27;20039;-59
2023/11/20 06:18:24;;;;;;;7.57;3.15;;;;;;;;;;5107524;28;20126;-60
2023/11/20 06:20:50;;;;;;;10.43;3.13;;;;;;;;;;5112351;28;20047;-60
2023/11/20 06:23:18;;;;;;;8.85;2.80;;;;;;;;;;5112099;28;20393;-59
2023/11/20 06:25:46;;;;;;;8.80;3.28;;;;;;;;;;5113459;28;20047;-60
2023/11/20 06:28:13;;;;;;;7.43;2.78;;;;;;;;;;5131972;28;20058;-60
2023/11/20 06:30:41;;;;;;;10.15;3.03;;;;;;;;;;5132538;28;20051;-60
2023/11/20 06:33:08;;;;;;;10.20;3.08;;;;;;;;;;5122881;28;20054;-60
2023/11/20 06:35:35;;;;;;;10.10;3.95;;;;;;;;;;5122396;28;20058;-61
2023/11/20 06:38:02;;;;;;;10.82;4.03;;;;;;;;;;5129607;28;20054;-60
2023/11/20 06:40:29;;;;;;;11.75;4.03;;;;;;;;;;5126696;28;20062;-59
2023/11/20 06:42:55;;;;;;;6.03;2.88;;;;;;;;;;5105276;28;20050;-60
2023/11/20 06:45:22;;;;;;;10.98;3.85;;;;;;;;;;5106470;28;20054;-60
2023/11/20 06:47:50;;;;;;;11.38;3.90;;;;;;;;;;5102437;27;20044;-59
2023/11/20 06:50:17;;;;;;;12.63;3.53;;;;;;;;;;5115364;28;20056;-60
2023/11/20 06:52:44;;;;;;;10.85;3.63;;;;;;;;;;5113667;28;20074;-60
2023/11/20 06:55:10;;;;;;;10.45;3.80;;;;;;;;;;5116251;28;20058;-59
2023/11/20 06:57:37;;;;;;;9.52;4.18;;;;;;;;;;5115790;28;20052;-60
2023/11/20 07:00:05;;;;;;;10.95;3.85;;;;;;;;;;5123153;27;20052;-59
2023/11/20 07:02:32;;;;;;;9.90;4.28;;;;;;;;;;5115039;28;20095;-60
2023/11/20 07:05:01;;;;;;;12.35;4.05;;;;;;;;;;5114317;28;20048;-59
2023/11/20 07:07:28;;;;;;;8.07;4.00;;;;;;;;;;5113577;28;20059;-59
2023/11/20 07:09:55;;;;;;;10.50;4.10;;;;;;;;;;5115564;28;20062;-60
2023/11/20 07:12:22;;;;;;;10.57;4.22;;;;;;;;;;5115076;28;20051;-60
2023/11/20 07:14:49;;;;;;;12.35;4.25;;;;;;;;;;5114764;28;20048;-59
2023/11/20 07:17:16;;;;;;;12.20;5.05;;;;;;;;;;5113664;28;20051;-59
2023/11/20 07:19:43;;;;;;;11.32;4.78;;;;;;;;;;5115654;28;20051;-59
2023/11/20 07:22:12;;;;;;;12.43;4.68;;;;;;;;;;5114737;28;20062;-58
2023/11/20 07:24:39;;;;;;;11.65;4.88;;;;;;;;;;5115345;28;20051;-59
2023/11/20 07:27:05;;;;;;;10.32;3.97;;;;;;;;;;5114955;28;20050;-59
2023/11/20 07:29:32;;;;;;;12.48;4.53;;;;;;;;;;5114932;28;20074;-60
2023/11/20 07:31:59;;;;;;;14.45;4.82;;;;;;;;;;5114379;28;20050;-60
2023/11/20 07:34:26;;;;;;;15.75;4.78;;;;;;;;;;5115301;28;20047;-60
2023/11/20 07:36:54;;;;;;;13.70;4.70;;;;;;;;;;5114784;28;20051;-60
2023/11/20 07:39:22;;;;;;;17.48;5.25;;;;;;;;;;5115571;28;20058;-60
2023/11/20 07:41:49;;;;;;;13.43;4.45;;;;;;;;;;5114722;28;20047;-60
2023/11/20 07:44:16;;;;;;;13.50;4.47;;;;;;;;;;5114431;28;20066;-60
2023/11/20 07:46:43;;;;;;;12.00;4.32;;;;;;;;;;5114694;28;20052;-60
2023/11/20 07:49:10;;;;;;;14.50;4.38;;;;;;;;;;5114325;28;20510;-59
2023/11/20 07:51:37;;;;;;;9.65;3.83;;;;;;;;;;5113997;28;20381;-59
2023/11/20 07:54:03;;;;;;;18.25;4.93;;;;;;;;;;5115050;28;20054;-60
2023/11/20 07:56:32;;;;;;;18.35;4.80;;;;;;;;;;5112650;28;20044;-59
2023/11/20 07:58:58;;;;;;;12.48;4.15;;;;;;;;;;5113923;28;20066;-60
2023/11/20 08:01:25;;;;;;;15.18;4.57;;;;;;;;;;5114270;28;20052;-59
2023/11/20 08:03:52;;;;;;;15.00;4.00;;;;;;;;;;5110623;28;20047;-59
2023/11/20 08:06:19;;;;;;;15.85;4.80;;;;;;;;;;5114413;27;20058;-59
2023/11/20 08:08:46;;;;;;;13.05;4.75;;;;;;;;;;5114718;28;20058;-60
2023/11/20 08:11:13;;;;;;;16.85;4.28;;;;;;;;;;5123993;27;20059;-59
2023/11/20 08:13:41;;;;;;;13.77;4.10;;;;;;;;;;5113820;28;20043;-59
2023/11/20 08:16:09;;;;;;;17.35;5.00;;;;;;;;;;5113842;27;20059;-59
2023/11/20 08:18:36;;;;;;;13.20;4.72;;;;;;;;;;5113659;28;20488;-58
2023/11/20 08:21:03;;;;;;;13.48;4.25;;;;;;;;;;5113317;28;20055;-59
2023/11/20 08:23:29;;;;;;;20.05;5.80;;;;;;;;;;5113140;28;20523;-59
2023/11/20 08:25:56;;;;;;;17.95;4.85;;;;;;;;;;5112929;28;20048;-59
2023/11/20 08:28:23;;;;;;;14.02;4.13;;;;;;;;;;5112806;28;20044;-59
2023/11/20 08:30:51;;;;;;;14.13;4.63;;;;;;;;;;5113256;28;20054;-58
2023/11/20 08:33:18;;;;;;;15.40;4.28;;;;;;;;;;5113434;28;20051;-58
2023/11/20 08:35:45;;;;;;;13.93;4.50;;;;;;;;;;5113950;28;20062;-58
2023/11/20 08:38:12;;;;;;;14.57;4.50;;;;;;;;;;5113082;28;20051;-59
2023/11/20 08:40:40;;;;;;;16.45;4.00;;;;;;;;;;5113046;28;20047;-59
2023/11/20 08:43:08;;;;;;;12.70;3.80;;;;;;;;;;5112100;28;20051;-59
2023/11/20 08:45:35;;;;;;;14.20;4.13;;;;;;;;;;5108075;28;20697;-59
2023/11/20 08:48:05;;;;;;;14.05;3.80;;;;;;;;;;5111770;28;20445;-60
2023/11/20 08:50:31;;;;;;;15.40;4.25;;;;;;;;;;5111490;28;20051;-60
2023/11/20 08:52:58;;;;;;;13.38;3.70;;;;;;;;;;5111306;28;20062;-61
2023/11/20 08:55:25;;;;;;;11.32;3.20;;;;;;;;;;5112105;28;20130;-61
2023/11/20 08:57:52;;;;;;;14.57;4.00;;;;;;;;;;5113165;28;20048;-61
2023/11/20 09:00:19;;;;;;;14.30;4.28;;;;;;;;;;5112976;28;20096;-61
2023/11/20 09:02:46;;;;;;;12.98;3.67;;;;;;;;;;5112334;28;20477;-60
2023/11/20 09:05:14;;;;;;;12.63;3.75;;;;;;;;;;5113184;28;20052;-61
2023/11/20 09:07:41;;;;;;;12.10;3.72;;;;;;;;;;5111779;28;20364;-61
2023/11/20 09:10:09;;;;;;;10.52;3.40;;;;;;;;;;5112616;28;20056;-62
2023/11/20 09:12:36;;;;;;;13.98;3.55;;;;;;;;;;5113857;27;20412;-61
2023/11/20 09:15:03;;;;;;;15.13;3.72;;;;;;;;;;5114020;28;20405;-61
2023/11/20 09:17:29;;;;;;;11.25;3.10;;;;;;;;;;5113601;28;20404;-60
2023/11/20 09:19:57;;;;;;;11.18;4.03;;;;;;;;;;5113571;28;20051;-60
2023/11/20 09:22:25;;;;;;;10.88;3.30;;;;;;;;;;5113364;28;20062;-61
2023/11/20 09:24:52;;;;;;;12.48;3.65;;;;;;;;;;5113647;28;20484;-61
2023/11/20 09:27:20;;;;;;;11.43;3.15;;;;;;;;;;5113242;28;20058;-59
2023/11/20 09:29:46;;;;;;;10.57;3.50;;;;;;;;;;5113426;28;20056;-59
2023/11/20 09:32:13;;;;;;;11.40;3.65;;;;;;;;;;5113009;28;20059;-61
2023/11/20 09:34:40;;;;;;;8.73;3.08;;;;;;;;;;5113217;28;20065;-61
2023/11/20 09:37:07;;;;;;;8.07;3.00;;;;;;;;;;5112770;28;20047;-61
2023/11/20 09:39:35;;;;;;;11.50;2.97;;;;;;;;;;5112805;28;20144;-60
2023/11/20 09:42:02;;;;;;;7.88;2.90;;;;;;;;;;5112360;28;20051;-61
2023/11/20 09:44:32;;;;;;;8.90;3.60;;;;;;;;;;5112731;28;20487;-61
2023/11/20 09:47:00;;;;;;;10.57;3.47;;;;;;;;;;5112676;28;20051;-61
2023/11/20 09:49:27;;;;;;;12.38;3.05;;;;;;;;;;5112832;28;20055;-61
2023/11/20 09:51:55;;;;;;;10.18;3.15;;;;;;;;;;5112703;28;20047;-60
2023/11/20 09:54:23;;;;;;;10.27;2.90;;;;;;;;;;5112679;28;20400;-60
2023/11/20 09:56:52;;;;;;;9.07;3.08;;;;;;;;;;5112453;28;20058;-60
2023/11/20 09:59:19;;;;;;;12.38;3.05;;;;;;;;;;5112566;28;20070;-61
2023/11/20 10:01:46;;;;;;;11.52;3.40;;;;;;;;;;5112821;28;20051;-60
2023/11/20 10:04:15;;;;;;;12.88;3.00;;;;;;;;;;5112812;28;20055;-60
2023/11/20 10:06:44;;;;;;;10.93;3.63;;;;;;;;;;5112660;28;20058;-60
2023/11/20 10:09:12;;;;;;;9.50;3.20;;;;;;;;;;5112381;28;20044;-60
2023/11/20 10:11:40;;;;;;;10.85;2.90;;;;;;;;;;5112637;28;20055;-60
2023/11/20 10:14:09;;;;;;;11.30;3.10;;;;;;;;;;5112822;28;20058;-60
2023/11/20 10:16:39;;;;;;;12.00;3.10;;;;;;;;;;5112149;28;20056;-61
2023/11/20 10:19:07;;;;;;;12.05;2.78;;;;;;;;;;5112230;28;20493;-60
2023/11/20 10:21:35;;;;;;;10.23;3.00;;;;;;;;;;5112545;28;20543;-61
2023/11/20 10:24:02;;;;;;;13.20;3.30;;;;;;;;;;5112008;28;20421;-60
2023/11/20 10:26:29;;;;;;;8.82;3.00;;;;;;;;;;5112227;28;20528;-60
2023/11/20 10:28:56;;;;;;;12.25;2.80;;;;;;;;;;5112614;28;20126;-60
2023/11/20 10:31:24;;;;;;;9.45;2.53;;;;;;;;;;5112192;28;20062;-60
2023/11/20 10:34:01;;;;;;;11.25;3.13;;;;;;;;;;5095702;28;20074;-60
2023/11/20 10:36:28;;;;;;;10.20;2.72;;;;;;;;;;5112339;28;20051;-60
2023/11/20 10:38:56;;;;;;;8.93;2.55;;;;;;;;;;5112484;28;20070;-60
2023/11/20 10:41:23;;;;;;;15.30;3.70;;;;;;;;;;5111968;28;20071;-60
2023/11/20 10:43:50;;;;;;;10.52;2.83;;;;;;;;;;5112452;28;20055;-61
2023/11/20 10:46:17;;;;;;;11.68;3.08;;;;;;;;;;5112343;28;20507;-60
2023/11/20 10:48:47;;;;;;;7.80;2.38;;;;;;;;;;5112460;28;20052;-61
2023/11/20 10:51:18;;;;;;;12.48;3.10;;;;;;;;;;5112039;28;20055;-60
2023/11/20 10:53:52;;;;;;;9.07;3.03;;;;;;;;;;5112130;28;20055;-61
2023/11/20 10:56:19;;;;;;;9.73;2.78;;;;;;;;;;5111873;28;20051;-60
2023/11/20 10:58:46;;;;;;;13.13;3.38;;;;;;;;;;5112313;28;20051;-60
2023/11/20 11:01:14;;;;;;;10.80;2.63;;;;;;;;;;5111772;28;20063;-60
2023/11/20 11:03:42;;;;;;;9.50;2.55;;;;;;;;;;5111887;28;20055;-61
2023/11/20 11:06:10;;;;;;;8.13;1.90;;;;;;;;;;5111637;28;20051;-61
2023/11/20 11:08:38;;;;;;;7.72;2.33;;;;;;;;;;5112350;28;20492;-61
2023/11/20 11:11:05;;;;;;;7.88;2.22;;;;;;;;;;5112141;28;20058;-61
2023/11/20 11:13:32;;;;;;;7.97;2.50;;;;;;;;;;5112283;28;20059;-61
2023/11/20 11:16:00;;;;;;;6.25;2.20;;;;;;;;;;5111864;28;20063;-60
2023/11/20 11:18:29;;;;;;;5.53;2.08;;;;;;;;;;5112446;28;20059;-61
2023/11/20 11:20:56;;;;;;;8.35;2.45;;;;;;;;;;5112076;28;20052;-61
2023/11/20 11:23:28;;;;;;;7.90;2.40;;;;;;;;;;5111250;28;20055;-60
2023/11/20 11:26:00;;;;;;;6.15;2.22;;;;;;;;;;5111725;28;20510;-60
2023/11/20 11:28:28;;;;;;;5.47;1.95;;;;;;;;;;5111856;28;20048;-60
2023/11/20 11:30:55;;;;;;;5.90;2.38;;;;;;;;;;5113539;28;20054;-61
2023/11/20 11:33:27;;;;;;;7.00;2.15;;;;;;;;;;5115035;28;20059;-60
2023/11/20 11:36:13;;;;;;;6.22;2.20;;;;;;;;;;5115377;28;20415;-61
2023/11/20 11:38:45;;;;;;;6.82;1.88;;;;;;;;;;5115756;28;20049;-61
2023/11/20 11:41:35;;;;;;;6.55;1.85;;;;;;;;;;5115458;28;20488;-61
2023/11/20 11:44:02;;;;;;;;;;;;;;;;;;5116006;28;20063;-61
2023/11/20 11:46:29;;;;;;;7.22;2.30;;;;;;;;;;5115631;28;19920;-61
2023/11/20 11:49:11;;;;;;;7.53;2.13;;;;;;;;;;5115153;28;20047;-61
2023/11/20 11:51:37;;;;;;;6.03;1.90;;;;;;;;;;5115192;28;20062;-61
2023/11/20 11:54:15;;;;;;;8.88;2.38;;;;;;;;;;5115329;28;20047;-62
2023/11/20 11:56:48;;;;;;;7.78;2.30;;;;;;;;;;5114863;28;20051;-62
2023/11/20 11:59:18;;;;;;;8.23;1.90;;;;;;;;;;5115144;28;20047;-62
2023/11/20 12:01:48;;;;;;;5.68;1.95;;;;;;;;;;5114599;28;20048;-61
2023/11/20 12:04:30;;;;;;;7.57;2.17;;;;;;;;;;5114320;28;20055;-62
2023/11/20 12:07:02;;;;;;;6.25;2.03;;;;;;;;;;5113958;28;20056;-62
2023/11/20 12:09:44;;;;;;;5.78;1.98;;;;;;;;;;5114517;28;20044;-62
2023/11/20 12:12:12;;;;;;;7.80;2.08;;;;;;;;;;5113821;28;20090;-62
2023/11/20 12:14:39;;;;;;;7.15;2.10;;;;;;;;;;5114996;28;20511;-61
2023/11/20 12:17:08;;;;;;;8.57;1.92;;;;;;;;;;5114375;28;20060;-61
2023/11/20 12:19:34;;;;;;;5.13;1.83;;;;;;;;;;5114589;28;20074;-62
2023/11/20 12:22:02;;;;;;;7.55;2.10;;;;;;;;;;5113924;28;20050;-61
2023/11/20 12:24:29;;;;;;;5.43;2.17;;;;;;;;;;5114797;28;20408;-62
2023/11/20 12:26:57;;;;;;;6.78;2.05;;;;;;;;;;5114751;28;20052;-62
2023/11/20 12:29:26;;;;;;;4.75;1.80;;;;;;;;;;5114530;28;20400;-61
2023/11/20 12:31:54;;;;;;;8.65;1.73;;;;;;;;;;5114304;28;20058;-61
2023/11/20 12:34:21;;;;;;;5.03;1.80;;;;;;;;;;5114299;28;20134;-61
2023/11/20 12:36:48;;;;;;;12.55;6.03;;;;;;;;;;5114407;28;20055;-61
2023/11/20 12:39:15;;;;;;;22.35;12.80;;;;;;;;;;5114187;28;20051;-61
2023/11/20 12:41:43;;;;;;;9.15;4.20;;;;;;;;;;5114340;28;20055;-61
2023/11/20 12:44:10;;;;;;;6.03;2.60;;;;;;;;;;5113608;28;20056;-61
2023/11/20 12:46:39;;;;;;;5.93;2.33;;;;;;;;;;5113740;28;20051;-61
2023/11/20 12:49:05;;;;;;;6.47;1.80;;;;;;;;;;5113965;28;20047;-61
2023/11/20 12:51:32;;;;;;;6.22;2.00;;;;;;;;;;5113700;28;20047;-61
2023/11/20 12:54:00;;;;;;;4.43;1.90;;;;;;;;;;5114272;28;20378;-61
2023/11/20 12:56:27;;;;;;;4.47;1.95;;;;;;;;;;5113622;28;20055;-60
2023/11/20 12:58:56;;;;;;;5.68;1.95;;;;;;;;;;5114282;28;20052;-60
2023/11/20 13:01:23;;;;;;;6.70;2.20;;;;;;;;;;5113784;28;20420;-61
2023/11/20 13:03:51;;;;;;;5.93;1.75;;;;;;;;;;5114171;28;20047;-61
2023/11/20 13:06:18;;;;;;;6.60;1.80;;;;;;;;;;5113149;28;20051;-62
2023/11/20 13:08:45;;;;;;;6.45;1.92;;;;;;;;;;5113402;28;20385;-62
2023/11/20 13:11:12;;;;;;;4.28;1.45;;;;;;;;;;5113607;28;20051;-62
2023/11/20 13:13:39;;;;;;;6.40;1.92;;;;;;;;;;5113566;28;20048;-61
2023/11/20 13:16:14;;;;;;;4.88;1.58;;;;;;;;;;5113446;28;20059;-61
2023/11/20 13:18:45;;;;;;;4.43;1.52;;;;;;;;;;5113528;28;20048;-61
2023/11/20 13:21:20;;;;;;;4.18;1.58;;;;;;;;;;5113532;28;20472;-61
2023/11/20 13:23:57;;;;;;;5.43;1.58;;;;;;;;;;5113011;28;20068;-61
2023/11/20 13:26:24;;;;;;;4.25;1.30;;;;;;;;;;5113180;28;20056;-61
2023/11/20 13:28:51;;;;;;;4.93;1.30;;;;;;;;;;5113613;28;20063;-60
2023/11/20 13:31:19;;;;;;;5.90;1.60;;;;;;;;;;5113181;28;20062;-61
2023/11/20 13:33:46;;;;;;;3.35;0.98;;;;;;;;;;5113453;28;20051;-61
2023/11/20 13:36:13;;;;;;;4.78;1.20;;;;;;;;;;5111931;28;20052;-61
2023/11/20 13:38:42;;;;;;;6.40;1.63;;;;;;;;;;5113210;28;20056;-60
2023/11/20 13:41:10;;;;;;;3.95;1.30;;;;;;;;;;5112899;28;20051;-60
2023/11/20 13:43:37;;;;;;;5.93;2.28;;;;;;;;;;5113105;28;20067;-60
2023/11/20 13:46:05;;;;;;;3.95;1.38;;;;;;;;;;5112643;28;20062;-60
2023/11/20 13:48:33;;;;;;;3.00;1.20;;;;;;;;;;5113339;28;20051;-60
2023/11/20 13:51:01;;;;;;;3.53;1.25;;;;;;;;;;5112529;28;20074;-60
2023/11/20 13:53:28;;;;;;;5.53;1.60;;;;;;;;;;5112091;28;20416;-60
2023/11/20 13:55:57;;;;;;;3.92;1.67;;;;;;;;;;5112772;28;20052;-61
2023/11/20 13:58:24;;;;;;;3.97;1.60;;;;;;;;;;5112920;28;20082;-61
2023/11/20 14:00:52;;;;;;;3.83;1.35;;;;;;;;;;5112971;28;20493;-60
2023/11/20 14:03:19;;;;;;;7.78;1.58;;;;;;;;;;5112857;28;20503;-60
2023/11/20 14:05:47;;;;;;;6.30;1.60;;;;;;;;;;5112293;28;20060;-60
2023/11/20 14:08:14;;;;;;;4.30;1.42;;;;;;;;;;5112661;28;20066;-60
2023/11/20 14:10:41;;;;;;;4.75;1.63;;;;;;;;;;5112192;28;20052;-60
2023/11/20 14:13:09;;;;;;;4.82;1.50;;;;;;;;;;5112553;28;20047;-61
2023/11/20 14:15:37;;;;;;;4.07;1.25;;;;;;;;;;5112307;28;20075;-59
2023/11/20 14:18:04;;;;;;;5.22;1.70;;;;;;;;;;5111791;28;20060;-60
2023/11/20 14:20:31;;;;;;;4.88;1.42;;;;;;;;;;5112646;28;20048;-60
2023/11/20 14:22:58;;;;;;;6.15;1.75;;;;;;;;;;5111919;28;20063;-60
2023/11/20 14:25:25;;;;;;;5.53;2.08;;;;;;;;;;5112507;28;20070;-60
2023/11/20 14:27:52;;;;;;;5.95;1.90;;;;;;;;;;5112360;28;20056;-60
2023/11/20 14:30:20;;;;;;;6.45;2.20;;;;;;;;;;5111989;28;20047;-60
2023/11/20 14:32:47;;;;;;;4.03;1.30;;;;;;;;;;5112240;28;20048;-60
2023/11/20 14:35:15;;;;;;;5.25;1.77;;;;;;;;;;5112375;28;20063;-60
2023/11/20 14:37:42;;;;;;;6.95;1.80;;;;;;;;;;5112433;28;20071;-60
2023/11/20 14:40:10;;;;;;;6.85;1.70;;;;;;;;;;5112075;28;20047;-60